Time;durP1;ratioP1;P1;durP2;ratioP2;P2;SDS_P1;SDS_P2;PMS_P1;PMS_P2;Temp;Humidity;BMP_temperature;BMP_pressure;BME280_temperature;BME280_humidity;BME280_pressure;Samples;Min_cycle;Max_cycle;Signal;HPM_P1;HPM_P2
2022/06/06 00:02:16;;;;;;;6.88;3.53;;;;;;;;;;5072425;28;20036;-59
2022/06/06 00:04:41;;;;;;;5.25;3.90;;;;;;;;;;5070244;28;20094;-58
2022/06/06 00:07:07;;;;;;;5.85;3.92;;;;;;;;;;5071402;28;20029;-58
2022/06/06 00:09:33;;;;;;;5.32;3.88;;;;;;;;;;5071832;28;20040;-58
2022/06/06 00:12:00;;;;;;;10.00;4.03;;;;;;;;;;5071013;28;20116;-58
2022/06/06 00:14:26;;;;;;;9.50;3.83;;;;;;;;;;5070145;28;20487;-57
2022/06/06 00:16:52;;;;;;;5.10;3.67;;;;;;;;;;5068932;28;20468;-58
2022/06/06 00:19:17;;;;;;;4.93;3.85;;;;;;;;;;5069795;28;20029;-58
2022/06/06 00:21:43;;;;;;;5.68;3.90;;;;;;;;;;5066858;28;20032;-58
2022/06/06 00:24:10;;;;;;;12.75;4.43;;;;;;;;;;5069029;28;20032;-59
2022/06/06 00:26:36;;;;;;;9.85;4.10;;;;;;;;;;5064318;28;20072;-58
2022/06/06 00:29:03;;;;;;;8.77;4.38;;;;;;;;;;5072805;28;20064;-58
2022/06/06 00:36:59;;;;;;;6.20;3.75;;;;;;;;;;5067609;28;20058;-57
2022/06/06 00:39:25;;;;;;;7.40;4.25;;;;;;;;;;5069418;28;20058;-57
2022/06/06 00:41:52;;;;;;;6.93;4.22;;;;;;;;;;5068388;28;20043;-57
2022/06/06 00:44:30;;;;;;;8.00;3.90;;;;;;;;;;5066167;28;20036;-58
2022/06/06 00:47:15;;;;;;;5.65;4.00;;;;;;;;;;5059821;28;20145;-58
2022/06/06 00:49:49;;;;;;;7.32;4.20;;;;;;;;;;5067580;28;20443;-58
2022/06/06 00:52:37;;;;;;;7.82;3.65;;;;;;;;;;5062161;28;20479;-58
2022/06/06 00:55:09;;;;;;;9.10;4.50;;;;;;;;;;5064801;28;20606;-57
2022/06/06 00:57:40;;;;;;;10.40;4.35;;;;;;;;;;5068076;28;20468;-57
2022/06/06 01:00:12;;;;;;;7.68;4.40;;;;;;;;;;5068010;28;20062;-60
2022/06/06 01:02:39;;;;;;;6.00;4.30;;;;;;;;;;5070096;28;20094;-59
2022/06/06 01:05:06;;;;;;;6.63;4.13;;;;;;;;;;5067715;28;20476;-57
2022/06/06 01:07:33;;;;;;;6.43;4.68;;;;;;;;;;5068847;28;20111;-57
2022/06/06 01:09:58;;;;;;;8.10;4.28;;;;;;;;;;5069443;28;20407;-57
2022/06/06 01:12:24;;;;;;;6.18;4.20;;;;;;;;;;5069283;28;20024;-57
2022/06/06 01:14:56;;;;;;;8.32;4.78;;;;;;;;;;5068679;28;20024;-58
2022/06/06 01:17:27;;;;;;;6.10;4.35;;;;;;;;;;5069532;28;20059;-57
2022/06/06 01:19:54;;;;;;;7.18;4.50;;;;;;;;;;5069850;28;20407;-57
2022/06/06 01:22:35;;;;;;;5.93;4.53;;;;;;;;;;5065168;28;20070;-58
2022/06/06 01:25:22;;;;;;;6.55;4.50;;;;;;;;;;5061644;28;20029;-57
2022/06/06 01:28:01;;;;;;;6.45;4.32;;;;;;;;;;5071041;28;20028;-59
2022/06/06 01:30:40;;;;;;;5.30;3.97;;;;;;;;;;5069320;28;20067;-58
2022/06/06 01:33:10;;;;;;;7.20;4.70;;;;;;;;;;5064183;28;20059;-59
2022/06/06 01:35:40;;;;;;;;;;;;;;;;;;5065955;28;20097;-59
2022/06/06 01:38:07;;;;;;;7.88;4.20;;;;;;;;;;5068335;28;19912;-58
2022/06/06 01:40:54;;;;;;;7.05;4.07;;;;;;;;;;5068102;28;20038;-58
2022/06/06 01:43:26;;;;;;;6.35;4.38;;;;;;;;;;5062266;28;20539;-58
2022/06/06 01:46:00;;;;;;;14.07;4.80;;;;;;;;;;5058501;28;20032;-58
2022/06/06 01:48:34;;;;;;;6.82;4.43;;;;;;;;;;5069470;28;20020;-58
2022/06/06 01:51:15;;;;;;;10.98;4.50;;;;;;;;;;5060156;28;20060;-57
2022/06/06 01:53:41;;;;;;;7.80;4.75;;;;;;;;;;5066243;28;20035;-57
2022/06/06 01:56:08;;;;;;;7.60;4.60;;;;;;;;;;5070777;28;20110;-58
2022/06/06 01:58:35;;;;;;;12.07;5.10;;;;;;;;;;5072665;28;20198;-58
2022/06/06 02:01:02;;;;;;;5.93;4.88;;;;;;;;;;5069999;28;20107;-57
2022/06/06 02:03:29;;;;;;;7.05;4.85;;;;;;;;;;5071974;28;20056;-57
2022/06/06 02:05:54;;;;;;;6.97;4.15;;;;;;;;;;5070553;28;20322;-58
2022/06/06 02:08:19;;;;;;;7.05;4.97;;;;;;;;;;5070236;28;20116;-58
2022/06/06 02:10:45;;;;;;;10.77;5.40;;;;;;;;;;5065703;28;20028;-58
2022/06/06 02:13:11;;;;;;;7.20;5.00;;;;;;;;;;5068449;28;20166;-58
2022/06/06 02:15:36;;;;;;;8.40;5.10;;;;;;;;;;5069728;28;20032;-60
2022/06/06 02:18:02;;;;;;;9.18;5.18;;;;;;;;;;5069228;28;20020;-58
2022/06/06 02:20:30;;;;;;;9.05;5.75;;;;;;;;;;5063901;28;20037;-58
2022/06/06 02:22:55;;;;;;;7.28;5.63;;;;;;;;;;5068145;28;20491;-57
2022/06/06 02:25:22;;;;;;;7.15;5.13;;;;;;;;;;5065083;28;20017;-57
2022/06/06 02:27:48;;;;;;;11.38;5.13;;;;;;;;;;5069035;28;20438;-57
2022/06/06 02:30:18;;;;;;;11.13;5.78;;;;;;;;;;5068688;28;20032;-57
2022/06/06 02:32:44;;;;;;;9.40;5.68;;;;;;;;;;5064026;28;20028;-57
2022/06/06 02:35:13;;;;;;;6.95;4.95;;;;;;;;;;5063580;28;20031;-59
2022/06/06 02:37:39;;;;;;;6.72;5.30;;;;;;;;;;5065848;28;20028;-58
2022/06/06 02:40:08;;;;;;;6.40;5.05;;;;;;;;;;5065900;28;20051;-57
2022/06/06 02:42:33;;;;;;;11.43;5.43;;;;;;;;;;5068316;28;20123;-57
2022/06/06 02:44:58;;;;;;;7.75;5.30;;;;;;;;;;5061787;28;20115;-58
2022/06/06 02:47:24;;;;;;;13.27;5.10;;;;;;;;;;5063485;28;20020;-58
2022/06/06 02:49:49;;;;;;;8.65;5.07;;;;;;;;;;5061605;28;20480;-59
2022/06/06 02:52:15;;;;;;;12.68;5.22;;;;;;;;;;5063612;28;20470;-57
2022/06/06 02:54:43;;;;;;;6.93;5.28;;;;;;;;;;5063352;28;20037;-58
2022/06/06 02:57:08;;;;;;;8.93;5.55;;;;;;;;;;5070003;28;20502;-58
2022/06/06 02:59:35;;;;;;;6.68;5.72;;;;;;;;;;5069234;28;20024;-58
2022/06/06 03:02:02;;;;;;;8.85;5.50;;;;;;;;;;5070349;28;20028;-59
2022/06/06 03:04:28;;;;;;;8.93;5.35;;;;;;;;;;5070019;28;20051;-58
2022/06/06 03:07:15;;;;;;;8.98;5.50;;;;;;;;;;5069648;28;20064;-58
2022/06/06 03:10:01;;;;;;;9.32;5.00;;;;;;;;;;5067466;28;20476;-58
2022/06/06 03:13:08;;;;;;;10.90;5.55;;;;;;;;;;5068877;28;20437;-59
2022/06/06 03:20:46;;;;;;;7.32;5.30;;;;;;;;;;5054670;28;20556;-58
2022/06/06 03:21:56;;;;;;;8.48;5.07;;;;;;;;;;5070581;28;20070;-58
2022/06/06 03:24:44;;;;;;;11.45;5.28;;;;;;;;;;5068170;28;20029;-59
2022/06/06 03:27:29;;;;;;;8.10;5.17;;;;;;;;;;5064099;28;20048;-58
2022/06/06 03:30:36;;;;;;;8.80;5.30;;;;;;;;;;5070662;28;20396;-58
2022/06/06 03:33:19;;;;;;;8.20;5.65;;;;;;;;;;5060866;28;20294;-58
2022/06/06 03:35:48;;;;;;;8.48;5.85;;;;;;;;;;5065933;28;20036;-59
2022/06/06 03:38:19;;;;;;;10.57;5.78;;;;;;;;;;5071289;28;20020;-59
2022/06/06 03:41:01;;;;;;;6.97;5.50;;;;;;;;;;5065976;28;20019;-58
2022/06/06 03:43:50;;;;;;;7.82;5.43;;;;;;;;;;5067443;28;20507;-58
2022/06/06 03:46:34;;;;;;;10.20;5.25;;;;;;;;;;5074110;28;20020;-59
2022/06/06 03:49:05;;;;;;;9.45;6.00;;;;;;;;;;5060680;28;20029;-57
2022/06/06 03:51:59;;;;;;;13.85;7.15;;;;;;;;;;5065504;28;20411;-59
2022/06/06 03:54:24;;;;;;;6.93;5.28;;;;;;;;;;5066592;28;20024;-58
2022/06/06 03:57:15;;;;;;;7.63;5.68;;;;;;;;;;5068367;28;20039;-58
2022/06/06 03:59:44;;;;;;;8.30;5.05;;;;;;;;;;5074047;28;20059;-58
2022/06/06 04:02:16;;;;;;;8.13;5.60;;;;;;;;;;5071539;28;20363;-58
2022/06/06 04:04:41;;;;;;;7.85;5.50;;;;;;;;;;5068798;28;20134;-58
2022/06/06 04:07:07;;;;;;;7.80;5.95;;;;;;;;;;5066041;28;20120;-58
2022/06/06 04:09:34;;;;;;;7.70;5.82;;;;;;;;;;5072250;28;20056;-58
2022/06/06 04:12:31;;;;;;;12.27;5.95;;;;;;;;;;5076094;28;20489;-57
2022/06/06 04:15:27;;;;;;;8.68;5.35;;;;;;;;;;5036602;28;20063;-58
2022/06/06 04:18:08;;;;;;;8.95;5.68;;;;;;;;;;5071705;28;20047;-57
2022/06/06 04:20:54;;;;;;;8.27;5.63;;;;;;;;;;5064730;28;20039;-57
2022/06/06 04:23:53;;;;;;;8.77;5.97;;;;;;;;;;5063865;28;20036;-59
2022/06/06 04:26:34;;;;;;;9.10;6.03;;;;;;;;;;5067199;28;20060;-57
2022/06/06 04:29:10;;;;;;;8.85;5.68;;;;;;;;;;5067948;28;20050;-58
2022/06/06 04:32:07;;;;;;;9.27;5.72;;;;;;;;;;5068663;28;20381;-57
2022/06/06 04:34:39;;;;;;;8.23;6.15;;;;;;;;;;5067425;28;20542;-57
2022/06/06 04:37:25;;;;;;;8.43;5.65;;;;;;;;;;5069800;28;20067;-58
2022/06/06 04:40:02;;;;;;;8.10;6.30;;;;;;;;;;5067428;28;20028;-58
2022/06/06 04:42:48;;;;;;;11.00;6.80;;;;;;;;;;5059654;28;20029;-60
2022/06/06 04:45:19;;;;;;;11.57;5.90;;;;;;;;;;5067400;28;20154;-58
2022/06/06 04:47:46;;;;;;;13.65;6.80;;;;;;;;;;5064256;28;20060;-58
2022/06/06 04:50:19;;;;;;;8.15;6.20;;;;;;;;;;5064757;28;20021;-58
2022/06/06 04:52:58;;;;;;;8.75;6.88;;;;;;;;;;5071787;28;20036;-59
2022/06/06 04:55:25;;;;;;;9.63;6.22;;;;;;;;;;5064904;28;20022;-59
2022/06/06 04:57:55;;;;;;;8.13;5.97;;;;;;;;;;5068840;28;20090;-58
2022/06/06 05:00:21;;;;;;;11.25;5.85;;;;;;;;;;5071110;28;20028;-58
2022/06/06 05:02:47;;;;;;;9.23;6.38;;;;;;;;;;5069958;28;20032;-58
2022/06/06 05:05:12;;;;;;;8.20;5.88;;;;;;;;;;5072597;28;20023;-58
2022/06/06 05:08:22;;;;;;;8.23;6.35;;;;;;;;;;5070491;28;20103;-59
2022/06/06 05:11:18;;;;;;;9.32;6.60;;;;;;;;;;5052321;28;20066;-58
2022/06/06 05:14:15;;;;;;;8.93;5.93;;;;;;;;;;5069552;28;20057;-59
2022/06/06 05:17:13;;;;;;;9.73;6.07;;;;;;;;;;5059413;28;20055;-59
2022/06/06 05:19:59;;;;;;;9.70;6.45;;;;;;;;;;5042796;28;20063;-59
2022/06/06 05:22:49;;;;;;;10.05;6.43;;;;;;;;;;5065721;28;20125;-59
2022/06/06 05:25:14;;;;;;;;;;;;;;;;;;5063004;28;20025;-59
2022/06/06 05:28:14;;;;;;;9.85;6.30;;;;;;;;;;5070784;28;19965;-59
2022/06/06 05:30:53;;;;;;;8.07;5.65;;;;;;;;;;5056223;28;20135;-59
2022/06/06 05:33:41;;;;;;;9.55;6.25;;;;;;;;;;5061566;28;20039;-59
2022/06/06 05:36:25;;;;;;;12.70;8.73;;;;;;;;;;5061531;28;20078;-59
2022/06/06 05:39:12;;;;;;;12.30;6.90;;;;;;;;;;5062285;28;20028;-59
2022/06/06 05:42:07;;;;;;;10.18;6.18;;;;;;;;;;5068608;28;20028;-59
2022/06/06 05:44:51;;;;;;;8.85;6.05;;;;;;;;;;5068476;28;20252;-59
2022/06/06 05:47:42;;;;;;;11.10;6.72;;;;;;;;;;5062561;28;20086;-59
2022/06/06 05:50:29;;;;;;;12.57;6.88;;;;;;;;;;5068914;28;20025;-59
2022/06/06 05:52:57;;;;;;;12.75;6.82;;;;;;;;;;5065008;28;20032;-59
2022/06/06 05:55:22;;;;;;;8.95;6.68;;;;;;;;;;5072323;28;20032;-59
2022/06/06 05:58:13;;;;;;;9.93;5.93;;;;;;;;;;5068547;28;20040;-59
2022/06/06 06:01:05;;;;;;;11.90;6.00;;;;;;;;;;5054230;28;20499;-59
2022/06/06 06:03:33;;;;;;;13.00;6.88;;;;;;;;;;5071405;28;20116;-59
2022/06/06 06:06:17;;;;;;;7.53;5.50;;;;;;;;;;5068156;28;20036;-59
2022/06/06 06:09:21;;;;;;;12.35;6.15;;;;;;;;;;5065817;28;20033;-59
2022/06/06 06:12:02;;;;;;;10.73;6.13;;;;;;;;;;5054846;28;20044;-59
2022/06/06 06:14:40;;;;;;;8.20;6.35;;;;;;;;;;5066768;28;20033;-59
2022/06/06 06:17:06;;;;;;;11.90;6.30;;;;;;;;;;5069401;28;20056;-59
2022/06/06 06:19:40;;;;;;;8.23;6.05;;;;;;;;;;5068883;28;20199;-59
2022/06/06 06:22:08;;;;;;;10.45;6.55;;;;;;;;;;5070068;28;20028;-59
2022/06/06 06:24:42;;;;;;;8.95;6.25;;;;;;;;;;5066189;28;20036;-59
2022/06/06 06:27:08;;;;;;;7.03;5.80;;;;;;;;;;5063441;28;20028;-59
2022/06/06 06:29:34;;;;;;;9.15;6.50;;;;;;;;;;5063937;28;20027;-59
2022/06/06 06:32:18;;;;;;;9.55;6.22;;;;;;;;;;5066317;28;20514;-59
2022/06/06 06:35:13;;;;;;;9.95;6.55;;;;;;;;;;5062190;28;21222;-59
2022/06/06 06:37:54;;;;;;;9.30;6.45;;;;;;;;;;5062007;28;20102;-59
2022/06/06 06:40:31;;;;;;;10.65;6.90;;;;;;;;;;5064938;28;20071;-59
2022/06/06 06:43:10;;;;;;;11.15;7.10;;;;;;;;;;5062749;28;20033;-59
2022/06/06 06:46:12;;;;;;;9.75;6.60;;;;;;;;;;5060383;28;20024;-59
2022/06/06 06:48:44;;;;;;;10.30;6.22;;;;;;;;;;5029421;28;20040;-59
2022/06/06 06:51:22;;;;;;;8.32;6.30;;;;;;;;;;5062240;28;20029;-60
2022/06/06 06:54:15;;;;;;;8.32;6.20;;;;;;;;;;5065004;28;20035;-59
2022/06/06 06:56:51;;;;;;;10.38;7.30;;;;;;;;;;5074862;28;20044;-60
2022/06/06 06:59:28;;;;;;;8.40;6.28;;;;;;;;;;5075353;28;20103;-60
2022/06/06 07:11:02;;;;;;;10.30;6.63;;;;;;;;;;5073908;28;20043;-60
2022/06/06 07:14:05;;;;;;;10.05;6.38;;;;;;;;;;5072859;28;20111;-60
2022/06/06 07:16:36;;;;;;;11.13;6.22;;;;;;;;;;5074170;28;20021;-59
2022/06/06 07:19:15;;;;;;;10.18;5.68;;;;;;;;;;5065645;28;20033;-60
2022/06/06 07:21:42;;;;;;;11.65;6.65;;;;;;;;;;5068577;28;20391;-59
2022/06/06 07:24:14;;;;;;;8.93;6.38;;;;;;;;;;5067631;28;20214;-60
2022/06/06 07:26:42;;;;;;;8.85;5.40;;;;;;;;;;5073650;28;20032;-59
2022/06/06 07:29:10;;;;;;;7.13;5.15;;;;;;;;;;5068174;28;20115;-59
2022/06/06 07:31:42;;;;;;;7.70;5.70;;;;;;;;;;5065452;28;20048;-59
2022/06/06 07:34:58;;;;;;;7.15;5.55;;;;;;;;;;5071811;28;20399;-59
2022/06/06 07:37:48;;;;;;;6.82;5.63;;;;;;;;;;5035682;28;20043;-60
2022/06/06 07:40:42;;;;;;;7.65;5.35;;;;;;;;;;5066643;28;20124;-59
2022/06/06 07:43:37;;;;;;;7.15;5.53;;;;;;;;;;5063517;28;20456;-59
2022/06/06 07:46:23;;;;;;;8.43;5.43;;;;;;;;;;5064223;28;20089;-60
2022/06/06 07:49:04;;;;;;;7.55;5.38;;;;;;;;;;5069249;28;20075;-60
2022/06/06 07:51:30;;;;;;;7.85;5.40;;;;;;;;;;5061590;28;20020;-60
2022/06/06 07:53:58;;;;;;;10.32;6.53;;;;;;;;;;5074361;28;20056;-59
2022/06/06 07:56:44;;;;;;;8.50;5.35;;;;;;;;;;5070359;28;20064;-60
2022/06/06 07:59:26;;;;;;;7.93;5.28;;;;;;;;;;5071748;28;20029;-59
2022/06/06 08:02:18;;;;;;;7.40;5.50;;;;;;;;;;5073542;28;20491;-59
2022/06/06 08:05:08;;;;;;;8.45;5.85;;;;;;;;;;5068204;28;20480;-60
2022/06/06 08:07:39;;;;;;;6.18;5.35;;;;;;;;;;5069147;28;20027;-59
2022/06/06 08:10:13;;;;;;;9.65;6.50;;;;;;;;;;5071973;28;20060;-60
2022/06/06 08:13:02;;;;;;;10.73;6.72;;;;;;;;;;5068878;28;20544;-60
2022/06/06 08:15:42;;;;;;;7.57;6.00;;;;;;;;;;5070973;28;20036;-59
2022/06/06 08:18:24;;;;;;;7.78;5.22;;;;;;;;;;5068449;28;20157;-59
2022/06/06 08:21:16;;;;;;;8.45;5.07;;;;;;;;;;5069395;28;20043;-60
2022/06/06 08:23:43;;;;;;;7.03;4.88;;;;;;;;;;5071080;28;20032;-60
2022/06/06 08:26:10;;;;;;;9.98;5.40;;;;;;;;;;5064355;28;20596;-60
2022/06/06 08:28:39;;;;;;;8.00;4.97;;;;;;;;;;5063303;28;20037;-59
2022/06/06 08:31:06;;;;;;;;;;;;;;;;;;5065093;28;20103;-60
2022/06/06 08:33:31;;;;;;;6.65;5.15;;;;;;;;;;5069592;28;19919;-59
2022/06/06 08:36:28;;;;;;;6.97;4.82;;;;;;;;;;5065089;28;20028;-60
2022/06/06 08:39:22;;;;;;;8.73;5.47;;;;;;;;;;5068015;28;20016;-60
2022/06/06 08:42:25;;;;;;;11.25;4.95;;;;;;;;;;5064349;28;20525;-60
2022/06/06 08:45:15;;;;;;;7.68;5.00;;;;;;;;;;5050822;28;20411;-60
2022/06/06 08:48:02;;;;;;;6.03;5.00;;;;;;;;;;5062664;28;20099;-60
2022/06/06 08:50:46;;;;;;;6.90;4.88;;;;;;;;;;5063364;28;20040;-60
2022/06/06 08:53:33;;;;;;;7.07;4.90;;;;;;;;;;5075711;28;20507;-61
2022/06/06 08:56:36;;;;;;;6.35;4.70;;;;;;;;;;5062302;28;20424;-60
2022/06/06 08:59:13;;;;;;;6.57;4.78;;;;;;;;;;5071461;28;20063;-59
2022/06/06 09:02:10;;;;;;;6.80;4.95;;;;;;;;;;5070303;28;20502;-61
2022/06/06 09:04:47;;;;;;;14.30;6.75;;;;;;;;;;5071769;28;20032;-60
2022/06/06 09:07:44;;;;;;;5.53;4.80;;;;;;;;;;5068431;28;20447;-60
2022/06/06 09:10:27;;;;;;;6.68;4.88;;;;;;;;;;5069119;28;20033;-60
2022/06/06 09:13:18;;;;;;;6.63;4.10;;;;;;;;;;5071920;28;20024;-60
2022/06/06 09:16:08;;;;;;;6.22;4.70;;;;;;;;;;5068173;28;20016;-60
2022/06/06 09:18:58;;;;;;;6.78;4.57;;;;;;;;;;5067968;28;20047;-60
2022/06/06 09:21:27;;;;;;;7.95;4.30;;;;;;;;;;5051073;28;20210;-60
2022/06/06 09:24:12;;;;;;;6.05;4.38;;;;;;;;;;5061997;28;20021;-60
2022/06/06 09:27:15;;;;;;;5.75;4.70;;;;;;;;;;5062869;28;20101;-60
2022/06/06 09:29:55;;;;;;;7.10;4.40;;;;;;;;;;5063582;28;20435;-60
2022/06/06 09:33:02;;;;;;;5.43;4.45;;;;;;;;;;5064586;28;20078;-61
2022/06/06 09:35:38;;;;;;;6.03;4.30;;;;;;;;;;5049254;28;20059;-60
2022/06/06 09:38:09;;;;;;;5.63;4.25;;;;;;;;;;5071288;28;20060;-60
2022/06/06 09:40:37;;;;;;;6.25;4.57;;;;;;;;;;5069219;28;20038;-60
2022/06/06 09:43:26;;;;;;;5.72;4.13;;;;;;;;;;5061692;28;20126;-60
2022/06/06 09:45:57;;;;;;;6.95;4.25;;;;;;;;;;5061779;28;20483;-60
2022/06/06 09:48:41;;;;;;;6.10;4.10;;;;;;;;;;5070607;28;20521;-61
2022/06/06 09:51:44;;;;;;;6.28;4.53;;;;;;;;;;5061669;28;20032;-60
2022/06/06 10:00:22;;;;;;;5.90;4.00;;;;;;;;;;5073270;28;19919;-60
2022/06/06 10:03:12;;;;;;;5.63;4.40;;;;;;;;;;5069308;28;20487;-60
2022/06/06 10:06:02;;;;;;;6.30;4.13;;;;;;;;;;5069746;28;20142;-60
2022/06/06 10:08:44;;;;;;;5.30;4.72;;;;;;;;;;5066458;28;20040;-60
2022/06/06 10:11:31;;;;;;;7.43;4.57;;;;;;;;;;5065798;28;20025;-60
2022/06/06 10:14:07;;;;;;;5.60;3.60;;;;;;;;;;5072097;28;20054;-59
2022/06/06 10:16:52;;;;;;;4.18;3.35;;;;;;;;;;5066545;28;20176;-59
2022/06/06 10:19:36;;;;;;;4.38;3.30;;;;;;;;;;5067201;28;20028;-60
2022/06/06 10:22:05;;;;;;;5.10;3.28;;;;;;;;;;5067643;28;20058;-60
2022/06/06 10:24:55;;;;;;;4.30;3.10;;;;;;;;;;5060490;28;20017;-60
2022/06/06 10:27:42;;;;;;;5.07;3.30;;;;;;;;;;5064640;28;20031;-61
2022/06/06 10:30:16;;;;;;;5.75;4.00;;;;;;;;;;5066923;28;20500;-59
2022/06/06 10:33:09;;;;;;;3.50;3.20;;;;;;;;;;5065637;28;20033;-60
2022/06/06 10:36:05;;;;;;;4.47;3.40;;;;;;;;;;5074211;28;20099;-60
2022/06/06 10:38:46;;;;;;;5.53;3.47;;;;;;;;;;5049175;28;20044;-59
2022/06/06 10:41:29;;;;;;;3.85;3.33;;;;;;;;;;5060756;28;20052;-59
2022/06/06 10:44:13;;;;;;;4.57;3.35;;;;;;;;;;5070591;28;20059;-60
2022/06/06 10:47:19;;;;;;;5.72;3.58;;;;;;;;;;5067644;28;20060;-60
2022/06/06 10:49:56;;;;;;;7.03;3.80;;;;;;;;;;5052415;28;20037;-60
2022/06/06 10:52:30;;;;;;;5.63;3.50;;;;;;;;;;5074401;28;20117;-59
2022/06/06 10:55:17;;;;;;;5.35;3.25;;;;;;;;;;5072576;28;20044;-60
2022/06/06 10:58:05;;;;;;;6.65;3.60;;;;;;;;;;5067156;28;20511;-59
2022/06/06 11:01:02;;;;;;;6.15;3.95;;;;;;;;;;5064881;28;20040;-60
2022/06/06 11:04:15;;;;;;;3.92;3.50;;;;;;;;;;5048584;28;20123;-60
2022/06/06 11:06:54;;;;;;;4.72;3.50;;;;;;;;;;5071680;28;20142;-60
2022/06/06 11:09:19;;;;;;;;;;;;;;;;;;5071033;28;20048;-59
2022/06/06 11:11:59;;;;;;;4.63;3.63;;;;;;;;;;5073321;28;19967;-60
2022/06/06 11:14:27;;;;;;;3.72;3.15;;;;;;;;;;5074663;28;20028;-60
2022/06/06 11:16:59;;;;;;;6.33;3.20;;;;;;;;;;5075419;28;20098;-60
2022/06/06 11:19:41;;;;;;;7.93;3.53;;;;;;;;;;5069208;28;20025;-59
2022/06/06 11:22:21;;;;;;;6.45;3.55;;;;;;;;;;5063810;28;20062;-59
2022/06/06 11:25:06;;;;;;;7.85;3.88;;;;;;;;;;5070362;28;20501;-60
2022/06/06 11:28:11;;;;;;;5.75;4.68;;;;;;;;;;5063315;28;20029;-60
2022/06/06 11:30:55;;;;;;;5.75;4.38;;;;;;;;;;5066844;28;20067;-60
2022/06/06 11:33:51;;;;;;;4.45;3.50;;;;;;;;;;5064063;28;20024;-59
2022/06/06 11:36:38;;;;;;;8.20;3.78;;;;;;;;;;5063883;28;20111;-59
2022/06/06 11:39:15;;;;;;;3.70;3.33;;;;;;;;;;5063146;28;20372;-59
2022/06/06 11:42:18;;;;;;;6.53;3.10;;;;;;;;;;5068952;28;20116;-60
2022/06/06 11:45:14;;;;;;;5.43;3.60;;;;;;;;;;5068308;28;20024;-61
2022/06/06 11:47:39;;;;;;;5.75;3.85;;;;;;;;;;5073215;28;20047;-61
2022/06/06 11:50:52;;;;;;;4.35;3.25;;;;;;;;;;5075779;28;20032;-60
2022/06/06 11:53:26;;;;;;;4.93;3.33;;;;;;;;;;5073777;28;20446;-61
2022/06/06 11:56:10;;;;;;;5.20;3.55;;;;;;;;;;5073638;28;20040;-61
2022/06/06 11:59:30;;;;;;;4.63;3.13;;;;;;;;;;5071810;28;20029;-61
2022/06/06 12:02:10;;;;;;;4.22;3.42;;;;;;;;;;5049948;28;20082;-60
2022/06/06 12:05:14;;;;;;;4.95;3.38;;;;;;;;;;5072081;28;20089;-61
2022/06/06 12:08:12;;;;;;;7.72;3.35;;;;;;;;;;5056061;28;20036;-61
2022/06/06 12:10:53;;;;;;;4.68;3.13;;;;;;;;;;5043677;28;20047;-61
2022/06/06 12:13:44;;;;;;;5.07;3.13;;;;;;;;;;5068803;28;20036;-61
2022/06/06 12:16:35;;;;;;;5.18;3.20;;;;;;;;;;5066302;28;20579;-61
2022/06/06 12:19:03;;;;;;;3.35;3.05;;;;;;;;;;5070704;28;20502;-61
2022/06/06 12:22:06;;;;;;;5.77;3.73;;;;;;;;;;5067646;28;20141;-61
2022/06/06 12:24:46;;;;;;;5.80;2.88;;;;;;;;;;5063029;28;20025;-61
2022/06/06 12:27:20;;;;;;;4.38;3.08;;;;;;;;;;5069706;28;20452;-61
2022/06/06 12:29:57;;;;;;;6.53;3.45;;;;;;;;;;5066710;28;20119;-61
2022/06/06 12:32:41;;;;;;;4.55;3.30;;;;;;;;;;5062453;28;20048;-62
2022/06/06 12:35:19;;;;;;;4.00;3.53;;;;;;;;;;5065782;28;20115;-61
2022/06/06 12:38:15;;;;;;;3.53;3.17;;;;;;;;;;5069691;28;20086;-61
2022/06/06 12:40:50;;;;;;;3.40;2.80;;;;;;;;;;5070258;28;20384;-61
2022/06/06 12:43:50;;;;;;;7.00;3.20;;;;;;;;;;5067160;28;20089;-61
2022/06/06 12:46:34;;;;;;;3.63;2.85;;;;;;;;;;5057596;28;20436;-62
2022/06/06 12:49:11;;;;;;;4.38;2.92;;;;;;;;;;5070522;28;20032;-60
2022/06/06 12:52:08;;;;;;;7.35;3.08;;;;;;;;;;5068530;28;20024;-60
2022/06/06 12:55:30;;;;;;;6.40;2.80;;;;;;;;;;5072000;28;20030;-60
2022/06/06 12:58:08;;;;;;;3.97;3.00;;;;;;;;;;5064807;28;20032;-60
2022/06/06 13:03:29;;;;;;;4.53;2.97;;;;;;;;;;5067829;28;20039;-60
2022/06/06 13:06:14;;;;;;;4.65;2.85;;;;;;;;;;5068993;28;20025;-60
2022/06/06 13:08:50;;;;;;;3.45;2.72;;;;;;;;;;5070858;28;20388;-62
2022/06/06 13:11:38;;;;;;;5.38;2.90;;;;;;;;;;5069389;28;20111;-60
2022/06/06 13:14:24;;;;;;;7.03;3.22;;;;;;;;;;5061587;28;20055;-61
2022/06/06 13:17:11;;;;;;;4.43;2.63;;;;;;;;;;5070561;28;20431;-61
2022/06/06 13:20:00;;;;;;;3.28;2.33;;;;;;;;;;5066910;28;20451;-61
2022/06/06 13:22:35;;;;;;;2.63;2.30;;;;;;;;;;5061313;28;20052;-61
2022/06/06 13:25:06;;;;;;;4.82;2.83;;;;;;;;;;5066348;28;20085;-61
2022/06/06 13:27:56;;;;;;;5.88;2.90;;;;;;;;;;5061912;28;20044;-60
2022/06/06 13:30:26;;;;;;;4.50;2.80;;;;;;;;;;5065626;28;20020;-61
2022/06/06 13:33:09;;;;;;;2.95;2.65;;;;;;;;;;5062209;28;20021;-60
2022/06/06 13:35:53;;;;;;;5.32;3.13;;;;;;;;;;5064040;28;20021;-61
2022/06/06 13:38:33;;;;;;;4.25;2.58;;;;;;;;;;5072903;28;20111;-60
2022/06/06 13:41:07;;;;;;;4.75;2.75;;;;;;;;;;5059902;28;20052;-61
2022/06/06 13:43:45;;;;;;;3.00;2.63;;;;;;;;;;5069086;28;20070;-61
2022/06/06 13:46:35;;;;;;;3.58;2.83;;;;;;;;;;5064842;28;20046;-61
2022/06/06 13:49:19;;;;;;;4.82;2.75;;;;;;;;;;5066071;28;20380;-60
2022/06/06 13:52:04;;;;;;;3.83;2.80;;;;;;;;;;5068779;28;20040;-61
2022/06/06 13:54:35;;;;;;;3.00;2.58;;;;;;;;;;5069890;28;20020;-61
2022/06/06 13:57:23;;;;;;;6.25;3.10;;;;;;;;;;5072714;28;20058;-61
2022/06/06 14:00:22;;;;;;;3.50;3.17;;;;;;;;;;5071432;28;20332;-61
2022/06/06 14:03:08;;;;;;;4.68;3.10;;;;;;;;;;5068703;28;20078;-60
2022/06/06 14:05:58;;;;;;;3.20;2.65;;;;;;;;;;5070715;28;20044;-61
2022/06/06 14:08:24;;;;;;;4.15;2.92;;;;;;;;;;5067679;28;20017;-61
2022/06/06 14:10:53;;;;;;;2.75;2.55;;;;;;;;;;5070943;28;20029;-61
2022/06/06 14:13:24;;;;;;;4.28;2.78;;;;;;;;;;5068983;28;20032;-61
2022/06/06 14:15:52;;;;;;;3.38;2.90;;;;;;;;;;5073259;28;20068;-61
2022/06/06 14:18:28;;;;;;;3.78;2.90;;;;;;;;;;5067902;28;20032;-61
2022/06/06 14:20:57;;;;;;;3.08;2.78;;;;;;;;;;5062859;28;20040;-61
2022/06/06 14:23:26;;;;;;;5.97;2.88;;;;;;;;;;5068410;28;20808;-61
2022/06/06 14:26:01;;;;;;;3.67;2.92;;;;;;;;;;5062789;28;20133;-61
2022/06/06 14:28:34;;;;;;;9.10;5.53;;;;;;;;;;5069670;28;20070;-61
2022/06/06 14:31:00;;;;;;;4.53;3.22;;;;;;;;;;5062652;28;20514;-61
2022/06/06 14:33:35;;;;;;;5.30;3.00;;;;;;;;;;5071125;28;20387;-61
2022/06/06 14:36:21;;;;;;;4.95;3.00;;;;;;;;;;5063070;28;20038;-60
2022/06/06 14:38:56;;;;;;;4.53;2.70;;;;;;;;;;5063650;28;20016;-61
2022/06/06 14:41:28;;;;;;;3.00;2.70;;;;;;;;;;5063438;28;20507;-61
2022/06/06 14:43:57;;;;;;;4.45;2.80;;;;;;;;;;5047630;28;20037;-61
2022/06/06 14:46:23;;;;;;;5.35;2.88;;;;;;;;;;5068954;28;20076;-60
2022/06/06 14:48:53;;;;;;;5.07;2.70;;;;;;;;;;5071282;28;20028;-60
2022/06/06 14:51:32;;;;;;;3.33;2.88;;;;;;;;;;5073191;28;20491;-60
2022/06/06 14:54:04;;;;;;;2.85;2.58;;;;;;;;;;5062871;28;20047;-60
2022/06/06 14:56:34;;;;;;;3.47;2.97;;;;;;;;;;5070162;28;20025;-61
2022/06/06 14:59:13;;;;;;;8.85;3.15;;;;;;;;;;5074542;28;20028;-60
2022/06/06 15:01:38;;;;;;;;;;;;;;;;;;5067829;28;20029;-61
2022/06/06 15:04:23;;;;;;;4.82;2.70;;;;;;;;;;5068688;28;19920;-60
2022/06/06 15:06:59;;;;;;;5.53;3.00;;;;;;;;;;5067879;28;20032;-61
2022/06/06 15:09:59;;;;;;;5.72;3.00;;;;;;;;;;5062159;28;20036;-60
2022/06/06 15:12:26;;;;;;;4.80;3.03;;;;;;;;;;5052065;28;20043;-60
2022/06/06 15:14:58;;;;;;;8.65;4.38;;;;;;;;;;5072045;28;20031;-60
2022/06/06 15:17:27;;;;;;;6.03;3.70;;;;;;;;;;5069394;28;20069;-60
2022/06/06 15:19:56;;;;;;;4.88;3.30;;;;;;;;;;5060391;28;20025;-60
2022/06/06 15:22:31;;;;;;;5.90;3.53;;;;;;;;;;5065940;28;20032;-60
2022/06/06 15:24:57;;;;;;;3.67;3.28;;;;;;;;;;5065038;28;20029;-60
2022/06/06 15:27:47;;;;;;;5.05;3.60;;;;;;;;;;5069048;28;20036;-60
2022/06/06 15:30:27;;;;;;;4.65;3.40;;;;;;;;;;5067203;28;20462;-60
2022/06/06 15:33:11;;;;;;;6.05;3.55;;;;;;;;;;5062667;28;20031;-61
2022/06/06 15:35:57;;;;;;;4.43;3.72;;;;;;;;;;5063923;28;20047;-60
2022/06/06 15:38:38;;;;;;;6.38;3.83;;;;;;;;;;5068571;28;20066;-60
2022/06/06 15:41:11;;;;;;;4.40;3.92;;;;;;;;;;5064566;28;20124;-60
2022/06/06 15:43:53;;;;;;;5.88;4.18;;;;;;;;;;5066759;28;20025;-60
2022/06/06 15:46:38;;;;;;;5.15;3.60;;;;;;;;;;5076215;28;20124;-60
2022/06/06 15:49:33;;;;;;;4.22;3.30;;;;;;;;;;5069316;28;20025;-60
2022/06/06 15:52:08;;;;;;;5.13;3.83;;;;;;;;;;5072289;28;20032;-61
2022/06/06 15:54:36;;;;;;;4.03;3.63;;;;;;;;;;5072522;28;20073;-60
2022/06/06 15:57:12;;;;;;;6.23;3.90;;;;;;;;;;5068283;28;20044;-60
2022/06/06 15:59:55;;;;;;;8.70;5.60;;;;;;;;;;5068911;28;20056;-60
2022/06/06 16:02:35;;;;;;;5.15;4.65;;;;;;;;;;5063871;28;20094;-60
2022/06/06 16:05:04;;;;;;;7.18;4.72;;;;;;;;;;5067185;28;20103;-61
2022/06/06 16:08:07;;;;;;;6.22;4.15;;;;;;;;;;5067642;28;20138;-60
2022/06/06 16:10:45;;;;;;;8.52;5.80;;;;;;;;;;5068126;28;20025;-60
2022/06/06 16:13:26;;;;;;;5.32;4.35;;;;;;;;;;5070067;28;20028;-61
2022/06/06 16:15:54;;;;;;;6.13;3.97;;;;;;;;;;5072854;28;20155;-60
2022/06/06 16:18:26;;;;;;;5.32;3.75;;;;;;;;;;5062702;28;20047;-60
2022/06/06 16:20:56;;;;;;;5.53;3.63;;;;;;;;;;5059035;28;20080;-60
2022/06/06 16:23:48;;;;;;;6.53;4.30;;;;;;;;;;5066042;28;20109;-61